createdAt,value
2022-10-13T00:01:35.275Z,8.00
2022-10-13T00:04:01.821Z,7.90
2022-10-13T00:06:28.485Z,7.80
2022-10-13T00:08:55.574Z,7.80
2022-10-13T00:11:26.638Z,7.80
2022-10-13T00:13:55.800Z,7.70
2022-10-13T00:16:22.489Z,7.70
2022-10-13T00:18:49.610Z,7.60
2022-10-13T00:21:17.992Z,7.60
2022-10-13T00:23:44.677Z,7.60
2022-10-13T00:26:12.328Z,7.60
2022-10-13T00:28:39.414Z,7.70
2022-10-13T00:31:19.547Z,7.70
2022-10-13T00:33:46.114Z,7.60
2022-10-13T00:36:12.797Z,7.60
2022-10-13T00:38:39.433Z,7.50
2022-10-13T00:41:06.251Z,7.50
2022-10-13T00:43:47.897Z,7.40
2022-10-13T00:46:15.116Z,7.40
2022-10-13T00:48:42.248Z,7.40
2022-10-13T00:51:09.857Z,7.40
2022-10-13T00:53:38.412Z,7.40
2022-10-13T00:56:07.812Z,7.40
2022-10-13T00:58:35.236Z,7.40
2022-10-13T01:01:03.972Z,7.40
2022-10-13T01:03:30.821Z,7.30
2022-10-13T01:05:58.848Z,7.30
2022-10-13T01:08:28.997Z,7.30
2022-10-13T01:11:03.497Z,7.30
2022-10-13T01:13:39.969Z,7.30
2022-10-13T01:16:13.827Z,7.20
2022-10-13T01:18:46.467Z,7.20
2022-10-13T01:21:18.314Z,7.20
2022-10-13T01:23:56.952Z,7.20
2022-10-13T01:26:32.751Z,7.10
2022-10-13T01:29:05.589Z,7.10
2022-10-13T01:31:37.987Z,7.10
2022-10-13T01:34:13.704Z,7.10
2022-10-13T01:36:47.336Z,7.20
2022-10-13T01:39:18.892Z,7.30
2022-10-13T01:41:49.462Z,7.30
2022-10-13T01:44:26.667Z,7.40
2022-10-13T01:46:54.238Z,7.40
2022-10-13T01:49:23.563Z,7.30
2022-10-13T01:51:51.845Z,7.30
2022-10-13T01:54:18.356Z,7.30
2022-10-13T01:56:52.165Z,7.30
2022-10-13T01:59:19.044Z,7.40
2022-10-13T02:01:56.144Z,7.50
2022-10-13T02:04:43.950Z,7.50
2022-10-13T02:07:30.119Z,7.50
2022-10-13T02:10:07.213Z,7.60
2022-10-13T02:12:38.268Z,7.70
2022-10-13T02:15:05.625Z,7.70
2022-10-13T02:17:32.227Z,7.80
2022-10-13T02:19:59.293Z,7.90
2022-10-13T02:22:29.548Z,7.90
2022-10-13T02:24:56.197Z,8.00
2022-10-13T02:27:23.181Z,7.90
2022-10-13T02:29:51.485Z,8.00
2022-10-13T02:32:18.233Z,8.00
2022-10-13T02:34:44.982Z,8.00
2022-10-13T02:37:11.517Z,8.00
2022-10-13T02:39:38.123Z,7.90
2022-10-13T02:42:04.989Z,7.90
2022-10-13T02:44:31.871Z,7.90
2022-10-13T02:46:58.611Z,7.80
2022-10-13T02:49:25.165Z,7.80
2022-10-13T02:51:53.172Z,7.80
2022-10-13T02:54:20.028Z,7.90
2022-10-13T02:56:46.628Z,7.80
2022-10-13T02:59:13.258Z,7.90
2022-10-13T03:01:42.023Z,7.80
2022-10-13T03:04:08.888Z,7.90
2022-10-13T03:06:35.507Z,7.80
2022-10-13T03:11:52.813Z,7.80
2022-10-13T03:14:19.373Z,7.80
2022-10-13T03:16:45.911Z,7.80
2022-10-13T03:19:12.481Z,7.80
2022-10-13T03:21:39.573Z,7.70
2022-10-13T03:24:06.561Z,7.70
2022-10-13T03:26:33.571Z,7.70
2022-10-13T03:29:00.127Z,7.70
2022-10-13T03:31:26.651Z,7.70
2022-10-13T03:33:53.251Z,7.60
2022-10-13T03:36:20.060Z,7.60
2022-10-13T03:38:46.665Z,7.60
2022-10-13T03:41:14.274Z,7.60
2022-10-13T03:43:41.259Z,7.60
2022-10-13T03:46:08.041Z,7.60
2022-10-13T03:48:35.312Z,7.50
2022-10-13T03:51:06.232Z,7.50
2022-10-13T03:53:32.807Z,7.50
2022-10-13T03:55:59.337Z,7.40
2022-10-13T03:58:28.472Z,7.40
2022-10-13T04:00:55.807Z,7.40
2022-10-13T04:03:22.358Z,7.30
2022-10-13T04:05:48.871Z,7.30
2022-10-13T04:08:15.516Z,7.30
2022-10-13T04:10:42.351Z,7.30
2022-10-13T04:13:08.890Z,7.20
2022-10-13T04:15:39.384Z,7.20
2022-10-13T04:18:06.765Z,7.20
2022-10-13T04:20:37.525Z,7.10
2022-10-13T04:23:04.173Z,7.10
2022-10-13T04:25:30.790Z,7.10
2022-10-13T04:27:57.311Z,7.10
2022-10-13T04:30:23.979Z,7.10
2022-10-13T04:32:50.609Z,7.10
2022-10-13T04:35:17.445Z,7.10
2022-10-13T04:37:45.237Z,7.10
2022-10-13T04:40:12.249Z,7.10
2022-10-13T04:42:38.922Z,7.10
2022-10-13T04:45:05.696Z,7.10
2022-10-13T04:47:36.794Z,7.20
2022-10-13T04:50:03.835Z,7.10
2022-10-13T04:52:30.493Z,7.10
2022-10-13T04:54:57.018Z,7.00
2022-10-13T04:57:23.545Z,6.90
2022-10-13T04:59:50.083Z,6.90
2022-10-13T05:02:16.961Z,6.80
2022-10-13T05:04:43.663Z,6.70
2022-10-13T05:07:17.985Z,6.70
2022-10-13T05:09:45.273Z,6.60
2022-10-13T05:12:11.847Z,6.60
2022-10-13T05:14:38.391Z,6.60
2022-10-13T05:17:04.941Z,6.60
2022-10-13T05:19:31.625Z,6.60
2022-10-13T05:21:58.182Z,6.60
2022-10-13T05:24:36.199Z,6.60
2022-10-13T05:27:09.854Z,6.60
2022-10-13T05:29:36.790Z,6.60
2022-10-13T05:32:03.677Z,6.50
2022-10-13T05:34:30.478Z,6.60
2022-10-13T05:36:56.978Z,6.50
2022-10-13T05:39:23.561Z,6.50
2022-10-13T05:41:50.063Z,6.50
2022-10-13T05:44:17.441Z,6.40
2022-10-13T05:46:44.342Z,6.40
2022-10-13T05:49:11.103Z,6.40
2022-10-13T05:51:39.799Z,6.50
2022-10-13T05:54:15.925Z,6.50
2022-10-13T05:56:48.862Z,6.50
2022-10-13T05:59:17.775Z,6.50
2022-10-13T06:01:44.840Z,6.40
2022-10-13T06:04:13.437Z,6.50
2022-10-13T06:06:40.235Z,6.50
2022-10-13T06:09:06.880Z,6.50
2022-10-13T06:11:33.483Z,6.50
2022-10-13T06:14:00.008Z,6.50
2022-10-13T06:16:26.786Z,6.50
2022-10-13T06:18:53.311Z,6.50
2022-10-13T06:21:19.822Z,6.60
2022-10-13T06:23:46.382Z,6.60
2022-10-13T06:26:12.890Z,6.70
2022-10-13T06:28:39.477Z,6.70
2022-10-13T06:31:06.508Z,6.80
2022-10-13T06:33:33.412Z,6.90
2022-10-13T06:36:06.041Z,7.00
2022-10-13T06:38:32.923Z,7.10
2022-10-13T06:41:00.229Z,7.30
2022-10-13T06:43:33.352Z,7.30
2022-10-13T06:46:05.468Z,7.40
2022-10-13T06:48:32.025Z,7.50
2022-10-13T06:51:02.268Z,7.60
2022-10-13T06:53:28.985Z,7.70
2022-10-13T06:55:59.327Z,7.90
2022-10-13T06:58:26.067Z,8.00
2022-10-13T07:00:54.381Z,8.10
2022-10-13T07:03:21.102Z,8.30
2022-10-13T07:05:47.683Z,8.40
2022-10-13T07:08:14.340Z,8.50
2022-10-13T07:10:40.906Z,8.70
2022-10-13T07:13:08.007Z,8.70
2022-10-13T07:15:37.009Z,8.80
2022-10-13T07:18:03.556Z,8.70
2022-10-13T07:20:30.089Z,8.80
2022-10-13T07:22:56.691Z,8.80
2022-10-13T07:25:23.259Z,8.80
2022-10-13T07:27:50.049Z,8.80
2022-10-13T07:30:16.706Z,8.90
2022-10-13T07:32:43.285Z,9.00
2022-10-13T07:35:10.340Z,9.10
2022-10-13T07:37:37.503Z,9.30
2022-10-13T07:40:04.857Z,9.40
2022-10-13T07:42:31.702Z,9.60
2022-10-13T07:44:58.361Z,9.80
2022-10-13T07:47:24.971Z,10.10
2022-10-13T07:49:51.598Z,10.20
2022-10-13T07:52:18.571Z,10.40
2022-10-13T07:54:45.333Z,10.50
2022-10-13T07:57:11.938Z,10.50
2022-10-13T07:59:38.561Z,10.60
2022-10-13T08:02:05.175Z,10.70
2022-10-13T08:04:32.717Z,10.70
2022-10-13T08:06:59.337Z,10.70
2022-10-13T08:09:26.597Z,10.80
2022-10-13T08:11:54.680Z,10.80
2022-10-13T08:14:24.278Z,10.80
2022-10-13T08:16:53.637Z,10.90
2022-10-13T08:19:22.027Z,10.90
2022-10-13T08:22:09.091Z,11.00
2022-10-13T08:24:35.975Z,11.20
2022-10-13T08:27:02.925Z,11.30
2022-10-13T08:29:29.562Z,11.50
2022-10-13T08:31:56.107Z,11.60
2022-10-13T08:34:23.388Z,11.80
2022-10-13T08:36:53.231Z,12.00
2022-10-13T08:39:21.015Z,12.10
2022-10-13T08:41:47.634Z,12.20
2022-10-13T08:47:34.391Z,12.60
2022-10-13T08:50:02.967Z,12.70
2022-10-13T08:52:42.115Z,12.90
2022-10-13T08:55:15.797Z,12.90
2022-10-13T08:57:43.409Z,13.00
2022-10-13T09:00:12.399Z,13.00
2022-10-13T09:02:39.611Z,13.00
2022-10-13T09:05:10.087Z,13.10
2022-10-13T09:07:37.021Z,13.10
2022-10-13T09:10:04.241Z,13.20
2022-10-13T09:12:31.527Z,13.20
2022-10-13T09:15:01.209Z,13.40
2022-10-13T09:17:28.141Z,13.30
2022-10-13T09:20:00.744Z,13.30
2022-10-13T09:22:29.245Z,13.30
2022-10-13T09:25:11.010Z,13.40
2022-10-13T09:27:52.988Z,13.40
2022-10-13T09:30:31.862Z,13.50
2022-10-13T09:33:04.425Z,13.60
2022-10-13T09:35:34.280Z,13.70
2022-10-13T09:38:11.305Z,13.90
2022-10-13T09:40:40.584Z,14.10
2022-10-13T09:43:19.962Z,14.30
2022-10-13T09:45:46.602Z,14.40
2022-10-13T09:48:14.991Z,14.50
2022-10-13T09:50:47.731Z,14.50
2022-10-13T09:53:20.152Z,14.50
2022-10-13T09:55:49.044Z,14.50
2022-10-13T09:58:32.238Z,14.50
2022-10-13T10:00:59.605Z,14.60
2022-10-13T10:03:29.263Z,14.60
2022-10-13T10:06:03.929Z,14.70
2022-10-13T10:09:01.389Z,14.70
2022-10-13T10:11:33.422Z,14.80
2022-10-13T10:14:22.851Z,14.80
2022-10-13T10:16:55.033Z,14.80
2022-10-13T10:19:36.951Z,14.90
2022-10-13T10:22:20.992Z,15.00
2022-10-13T10:24:59.679Z,14.90
2022-10-13T10:27:28.230Z,14.80
2022-10-13T10:29:59.618Z,14.90
2022-10-13T10:32:35.574Z,14.90
2022-10-13T10:35:09.263Z,15.00
2022-10-13T10:38:05.387Z,15.00
2022-10-13T10:40:31.874Z,15.10
2022-10-13T10:43:06.450Z,15.10
2022-10-13T10:45:39.823Z,15.20
2022-10-13T10:48:19.996Z,15.10
2022-10-13T10:50:47.046Z,15.10
2022-10-13T10:53:17.850Z,15.20
2022-10-13T10:55:55.001Z,15.20
2022-10-13T10:58:30.096Z,15.20
2022-10-13T11:01:08.200Z,15.20
2022-10-13T11:03:39.841Z,15.30
2022-10-13T11:06:22.484Z,15.50
2022-10-13T11:08:49.535Z,15.50
2022-10-13T11:11:25.059Z,15.60
2022-10-13T11:14:00.814Z,15.60
2022-10-13T11:16:27.322Z,15.60
2022-10-13T11:19:06.510Z,15.60
2022-10-13T11:22:08.399Z,15.60
2022-10-13T11:24:35.117Z,15.60
2022-10-13T11:27:22.158Z,15.70
2022-10-13T11:29:54.750Z,15.50
2022-10-13T11:32:27.667Z,15.40
2022-10-13T11:35:01.594Z,15.30
2022-10-13T11:37:36.337Z,15.30
2022-10-13T11:40:15.118Z,15.30
2022-10-13T11:43:05.084Z,15.30
2022-10-13T11:45:43.783Z,15.20
2022-10-13T11:48:30.395Z,15.30
2022-10-13T11:51:10.343Z,15.50
2022-10-13T11:53:50.576Z,15.50
2022-10-13T11:56:32.893Z,15.50
2022-10-13T11:58:59.538Z,15.50
2022-10-13T12:01:26.056Z,15.40
2022-10-13T12:03:52.700Z,15.40
2022-10-13T12:06:26.670Z,15.40
2022-10-13T12:08:53.246Z,15.40
2022-10-13T12:11:24.873Z,15.40
2022-10-13T12:13:51.972Z,15.30
2022-10-13T12:16:18.651Z,15.30
2022-10-13T12:18:45.187Z,15.10
2022-10-13T12:21:17.337Z,15.00
2022-10-13T12:23:44.027Z,14.90
2022-10-13T12:26:17.825Z,14.90
2022-10-13T12:28:47.501Z,14.80
2022-10-13T12:31:20.269Z,14.70
2022-10-13T12:33:53.045Z,14.80
2022-10-13T12:36:21.000Z,14.80
2022-10-13T12:38:49.524Z,14.90
2022-10-13T12:41:21.167Z,15.00
2022-10-13T12:43:48.217Z,15.10
2022-10-13T12:46:34.814Z,15.30
2022-10-13T12:49:08.029Z,15.30
2022-10-13T12:51:36.785Z,15.40
2022-10-13T12:54:06.874Z,15.40
2022-10-13T12:56:33.533Z,15.40
2022-10-13T12:59:00.173Z,15.50
2022-10-13T13:01:31.124Z,15.60
2022-10-13T13:03:59.461Z,15.70
2022-10-13T13:06:33.621Z,15.80
2022-10-13T13:09:12.360Z,15.80
2022-10-13T13:11:39.347Z,15.90
2022-10-13T13:14:25.434Z,15.80
2022-10-13T13:17:38.586Z,15.80
2022-10-13T13:20:18.387Z,15.90
2022-10-13T13:22:45.065Z,15.80
2022-10-13T13:25:11.868Z,15.80
2022-10-13T13:27:39.576Z,15.70
2022-10-13T13:30:16.683Z,15.60
2022-10-13T13:32:43.267Z,15.60
2022-10-13T13:35:10.010Z,15.50
2022-10-13T13:37:39.413Z,15.40
2022-10-13T13:40:06.999Z,15.40
2022-10-13T13:42:33.553Z,15.40
2022-10-13T13:45:00.145Z,15.40
2022-10-13T13:47:28.300Z,15.30
2022-10-13T13:49:55.928Z,15.20
2022-10-13T13:52:22.788Z,15.20
2022-10-13T13:54:50.704Z,15.10
2022-10-13T13:57:17.924Z,15.10
2022-10-13T13:59:44.893Z,15.00
2022-10-13T14:02:16.258Z,15.00
2022-10-13T14:04:42.938Z,14.90
2022-10-13T14:07:09.697Z,14.90
2022-10-13T14:09:36.674Z,14.90
2022-10-13T14:12:03.249Z,14.90
2022-10-13T14:14:32.596Z,14.90
2022-10-13T14:16:59.749Z,14.80
2022-10-13T14:19:26.704Z,14.70
2022-10-13T14:21:53.268Z,14.60
2022-10-13T14:24:19.918Z,14.60
2022-10-13T14:26:46.440Z,14.60
2022-10-13T14:29:13.539Z,14.60
2022-10-13T14:31:40.077Z,14.60
2022-10-13T14:34:06.601Z,14.60
2022-10-13T14:36:33.189Z,14.60
2022-10-13T14:38:59.703Z,14.60
2022-10-13T14:41:26.314Z,14.60
2022-10-13T14:43:54.477Z,14.60
2022-10-13T14:46:21.207Z,14.60
2022-10-13T14:48:47.948Z,14.60
2022-10-13T14:51:14.555Z,14.60
2022-10-13T14:53:42.452Z,14.60
2022-10-13T14:56:20.788Z,14.60
2022-10-13T14:58:48.119Z,14.60
2022-10-13T15:01:15.735Z,14.50
2022-10-13T15:03:42.649Z,14.50
2022-10-13T15:06:12.931Z,14.50
2022-10-13T15:08:39.502Z,14.50
2022-10-13T15:11:06.063Z,14.50
2022-10-13T15:13:32.587Z,14.40
2022-10-13T15:16:04.598Z,14.40
2022-10-13T15:18:31.726Z,14.40
2022-10-13T15:20:58.501Z,14.30
2022-10-13T15:23:25.296Z,14.30
2022-10-13T15:25:56.256Z,14.30
2022-10-13T15:28:23.519Z,14.20
2022-10-13T15:30:50.321Z,14.20
2022-10-13T15:33:17.218Z,14.20
2022-10-13T15:35:44.017Z,14.20
2022-10-13T15:38:10.643Z,14.10
2022-10-13T15:40:40.250Z,14.00
2022-10-13T15:43:07.100Z,14.00
2022-10-13T15:45:33.906Z,13.90
2022-10-13T15:48:00.439Z,13.90
2022-10-13T15:50:27.082Z,13.80
2022-10-13T15:52:53.919Z,13.70
2022-10-13T15:55:20.758Z,13.60
2022-10-13T15:57:47.398Z,13.50
2022-10-13T16:00:14.657Z,13.40
2022-10-13T16:02:41.813Z,13.30
2022-10-13T16:05:09.318Z,13.20
2022-10-13T16:07:36.094Z,13.10
2022-10-13T16:10:02.972Z,12.90
2022-10-13T16:12:29.499Z,12.90
2022-10-13T16:14:56.171Z,12.80
2022-10-13T16:17:22.821Z,12.70
2022-10-13T16:19:49.373Z,12.60
2022-10-13T16:22:15.967Z,12.50
2022-10-13T16:24:42.586Z,12.40
2022-10-13T16:27:09.125Z,12.30
2022-10-13T16:29:35.680Z,12.20
2022-10-13T16:32:02.207Z,12.20
2022-10-13T16:34:29.994Z,12.10
2022-10-13T16:36:56.522Z,12.10
2022-10-13T16:39:24.383Z,12.00
2022-10-13T16:41:51.458Z,12.00
2022-10-13T16:44:18.205Z,12.00
2022-10-13T16:46:46.530Z,12.00
2022-10-13T16:49:13.032Z,12.00
2022-10-13T16:51:39.605Z,12.10
2022-10-13T16:54:06.177Z,12.00
2022-10-13T16:56:32.739Z,12.10
2022-10-13T16:59:04.150Z,12.10
2022-10-13T17:01:31.370Z,12.10
2022-10-13T17:04:00.836Z,12.10
2022-10-13T17:06:28.951Z,12.10
2022-10-13T17:09:00.987Z,12.10
2022-10-13T17:11:28.655Z,12.10
2022-10-13T17:13:58.814Z,12.10
2022-10-13T17:16:25.939Z,12.10
2022-10-13T17:18:52.762Z,12.10
2022-10-13T17:21:20.916Z,12.10
2022-10-13T17:23:48.770Z,12.10
2022-10-13T17:26:16.398Z,12.10
2022-10-13T17:28:43.097Z,12.10
2022-10-13T17:31:12.635Z,12.00
2022-10-13T17:33:39.702Z,12.10
2022-10-13T17:36:07.472Z,12.00
2022-10-13T17:38:34.521Z,12.10
2022-10-13T17:41:02.012Z,12.00
2022-10-13T17:43:29.174Z,12.00
2022-10-13T17:46:07.456Z,12.00
2022-10-13T17:48:42.846Z,12.00
2022-10-13T17:51:11.208Z,11.90
2022-10-13T17:53:38.526Z,11.90
2022-10-13T17:56:06.545Z,11.90
2022-10-13T17:58:35.381Z,11.90
2022-10-13T18:01:13.315Z,11.90
2022-10-13T18:03:43.998Z,11.90
2022-10-13T18:06:10.753Z,11.90
2022-10-13T18:08:37.476Z,11.90
2022-10-13T18:11:08.619Z,11.90
2022-10-13T18:13:35.474Z,11.90
2022-10-13T18:16:03.615Z,11.80
2022-10-13T18:18:30.333Z,11.80
2022-10-13T18:20:56.892Z,11.80
2022-10-13T18:23:23.392Z,11.80
2022-10-13T18:25:50.089Z,11.80
2022-10-13T18:28:16.640Z,11.80
2022-10-13T18:30:43.240Z,11.80
2022-10-13T18:33:09.833Z,11.80
2022-10-13T18:35:36.359Z,11.80
2022-10-13T18:38:03.334Z,11.70
2022-10-13T18:40:30.160Z,11.70
2022-10-13T18:42:56.972Z,11.70
2022-10-13T18:45:25.977Z,11.60
2022-10-13T18:47:52.588Z,11.60
2022-10-13T18:50:19.137Z,11.50
2022-10-13T18:52:45.688Z,11.40
2022-10-13T18:55:12.209Z,11.40
2022-10-13T18:57:39.061Z,11.30
2022-10-13T19:00:06.922Z,11.30
2022-10-13T19:02:33.512Z,11.30
2022-10-13T19:05:00.106Z,11.20
2022-10-13T19:07:26.639Z,11.30
2022-10-13T19:09:53.422Z,11.20
2022-10-13T19:12:20.001Z,11.20
2022-10-13T19:14:46.720Z,11.20
2022-10-13T19:17:13.290Z,11.20
2022-10-13T19:19:40.687Z,11.20
2022-10-13T19:22:07.923Z,11.20
2022-10-13T19:24:34.802Z,11.20
2022-10-13T19:27:01.401Z,11.20
2022-10-13T19:29:28.168Z,11.30
2022-10-13T19:31:54.768Z,11.30
2022-10-13T19:34:21.539Z,11.30
2022-10-13T19:36:48.285Z,11.30
2022-10-13T19:39:20.031Z,11.30
2022-10-13T19:41:47.417Z,11.30
2022-10-13T19:44:15.300Z,11.40
2022-10-13T19:46:44.424Z,11.40
2022-10-13T19:49:11.888Z,11.40
2022-10-13T19:51:41.546Z,11.40
2022-10-13T19:54:08.635Z,11.40
2022-10-13T19:56:35.390Z,11.40
2022-10-13T19:59:04.414Z,11.40
2022-10-13T20:01:31.559Z,11.40
2022-10-13T20:03:58.219Z,11.40
2022-10-13T20:06:24.728Z,11.40
2022-10-13T20:08:51.335Z,11.40
2022-10-13T20:11:23.752Z,11.40
2022-10-13T20:13:51.376Z,11.40
2022-10-13T20:16:19.349Z,11.40
2022-10-13T20:18:50.653Z,11.40
2022-10-13T20:21:17.861Z,11.40
2022-10-13T20:23:44.474Z,11.40
2022-10-13T20:26:12.358Z,11.40
2022-10-13T20:28:42.906Z,11.40
2022-10-13T20:31:10.600Z,11.40
2022-10-13T20:33:37.309Z,11.40
2022-10-13T20:36:07.735Z,11.50
2022-10-13T20:38:37.720Z,11.40
2022-10-13T20:41:08.947Z,11.50
2022-10-13T20:43:37.437Z,11.50
2022-10-13T20:46:05.591Z,11.50
2022-10-13T20:48:51.441Z,11.50
2022-10-13T20:51:21.645Z,11.50
2022-10-13T20:53:48.840Z,11.40
2022-10-13T20:56:18.354Z,11.50
2022-10-13T20:58:45.539Z,11.40
2022-10-13T21:01:12.691Z,11.50
2022-10-13T21:03:39.396Z,11.40
2022-10-13T21:06:08.949Z,11.40
2022-10-13T21:08:35.867Z,11.40
2022-10-13T21:11:07.484Z,11.40
2022-10-13T21:13:39.815Z,11.40
2022-10-13T21:16:10.867Z,11.40
2022-10-13T21:18:40.794Z,11.50
2022-10-13T21:21:08.637Z,11.40
2022-10-13T21:23:35.587Z,11.30
2022-10-13T21:26:03.476Z,11.30
2022-10-13T21:28:30.500Z,11.30
2022-10-13T21:31:13.160Z,11.20
2022-10-13T21:33:40.362Z,11.20
2022-10-13T21:36:07.943Z,11.20
2022-10-13T21:38:34.464Z,11.20
2022-10-13T21:41:03.468Z,11.20
2022-10-13T21:43:30.083Z,11.20
2022-10-13T21:45:56.758Z,11.10
2022-10-13T21:48:23.416Z,11.10
2022-10-13T21:50:50.034Z,11.10
2022-10-13T21:53:16.557Z,11.20
2022-10-13T21:55:43.890Z,11.10
2022-10-13T21:58:10.436Z,11.10
2022-10-13T22:00:40.855Z,11.10
2022-10-13T22:05:58.114Z,11.10
2022-10-13T22:08:37.584Z,11.10
2022-10-13T22:11:05.021Z,11.10
2022-10-13T22:13:31.747Z,11.10
2022-10-13T22:16:02.468Z,11.10
2022-10-13T22:18:29.022Z,11.20
2022-10-13T22:20:55.697Z,11.20
2022-10-13T22:23:22.193Z,11.20
2022-10-13T22:25:48.839Z,11.10
2022-10-13T22:28:15.380Z,11.10
2022-10-13T22:30:41.978Z,11.10
2022-10-13T22:33:08.679Z,11.10
2022-10-13T22:35:36.010Z,11.00
2022-10-13T22:38:02.724Z,11.00
2022-10-13T22:40:29.371Z,11.00
2022-10-13T22:42:56.079Z,10.90
2022-10-13T22:45:22.613Z,10.90
2022-10-13T22:47:50.438Z,10.90
2022-10-13T22:50:19.197Z,10.80
2022-10-13T22:52:45.797Z,10.90
2022-10-13T22:55:12.432Z,10.80
2022-10-13T22:57:39.055Z,10.80
2022-10-13T23:00:05.928Z,10.80
2022-10-13T23:02:32.466Z,10.80
2022-10-13T23:04:59.037Z,10.80
2022-10-13T23:07:25.562Z,10.70
2022-10-13T23:09:52.089Z,10.70
2022-10-13T23:12:18.599Z,10.60
2022-10-13T23:14:45.139Z,10.50
2022-10-13T23:17:11.645Z,10.40
2022-10-13T23:19:38.158Z,10.40
2022-10-13T23:22:05.014Z,10.40
2022-10-13T23:24:31.570Z,10.40
2022-10-13T23:27:00.439Z,10.40
2022-10-13T23:29:27.415Z,10.40
2022-10-13T23:31:55.601Z,10.40
2022-10-13T23:34:22.316Z,10.40
2022-10-13T23:36:48.982Z,10.40
2022-10-13T23:39:15.498Z,10.30
2022-10-13T23:41:42.233Z,10.20
2022-10-13T23:44:08.737Z,10.20
2022-10-13T23:46:35.259Z,10.20
2022-10-13T23:49:01.772Z,10.10
2022-10-13T23:51:28.409Z,10.10
2022-10-13T23:53:55.357Z,10.10
2022-10-13T23:56:22.251Z,10.10
2022-10-13T23:58:48.953Z,10.10
